createdAt,value
2017-12-07T00:00:24.254Z,99.90
2017-12-07T00:02:50.698Z,99.90
2017-12-07T00:05:17.153Z,99.90
2017-12-07T00:07:43.573Z,99.90
2017-12-07T00:10:09.997Z,99.90
2017-12-07T00:12:36.424Z,99.90
2017-12-07T00:15:02.946Z,99.90
2017-12-07T00:17:29.344Z,99.90
2017-12-07T00:19:55.761Z,99.90
2017-12-07T00:22:24.069Z,99.90
2017-12-07T00:24:50.481Z,99.90
2017-12-07T00:27:16.906Z,99.90
2017-12-07T00:29:43.309Z,99.90
2017-12-07T00:32:09.724Z,99.90
2017-12-07T00:34:36.137Z,99.90
2017-12-07T00:37:02.525Z,99.90
2017-12-07T00:39:28.937Z,99.90
2017-12-07T00:41:55.355Z,99.90
2017-12-07T00:44:21.773Z,99.90
2017-12-07T00:46:48.185Z,99.90
2017-12-07T00:49:14.597Z,99.90
2017-12-07T00:51:47.202Z,99.90
2017-12-07T00:54:19.639Z,99.90
2017-12-07T00:56:47.798Z,99.90
2017-12-07T00:59:14.969Z,99.90
2017-12-07T01:01:41.385Z,99.90
2017-12-07T01:04:07.843Z,99.90
2017-12-07T01:06:34.272Z,99.90
2017-12-07T01:09:00.699Z,99.90
2017-12-07T01:11:27.133Z,99.90
2017-12-07T01:13:53.542Z,99.90
2017-12-07T01:16:20.698Z,99.90
2017-12-07T01:18:47.854Z,99.90
2017-12-07T01:21:14.290Z,99.90
2017-12-07T01:23:40.704Z,99.90
2017-12-07T01:26:07.124Z,99.90
2017-12-07T01:28:34.317Z,99.90
2017-12-07T01:31:00.714Z,99.90
2017-12-07T01:33:27.140Z,99.90
2017-12-07T01:35:53.606Z,99.90
2017-12-07T01:38:20.054Z,99.90
2017-12-07T01:40:46.499Z,99.90
2017-12-07T01:43:12.945Z,99.90
2017-12-07T01:45:39.376Z,99.90
2017-12-07T01:48:05.847Z,99.90
2017-12-07T01:50:32.375Z,99.90
2017-12-07T01:52:58.777Z,99.90
2017-12-07T01:55:25.181Z,99.90
2017-12-07T01:57:51.574Z,99.90
2017-12-07T02:00:18.013Z,99.90
2017-12-07T02:02:44.457Z,99.90
2017-12-07T02:05:10.897Z,99.90
2017-12-07T02:07:37.340Z,99.90
2017-12-07T02:10:03.777Z,99.90
2017-12-07T02:12:30.197Z,99.90
2017-12-07T02:14:56.588Z,99.90
2017-12-07T02:17:23.781Z,99.90
2017-12-07T02:19:50.370Z,99.90
2017-12-07T02:22:17.503Z,99.90
2017-12-07T02:24:43.958Z,99.90
2017-12-07T02:27:11.217Z,99.90
2017-12-07T02:29:38.418Z,99.90
2017-12-07T02:32:04.911Z,99.90
2017-12-07T02:34:32.109Z,99.90
2017-12-07T02:36:58.957Z,99.90
2017-12-07T02:39:25.401Z,99.90
2017-12-07T02:41:51.866Z,99.90
2017-12-07T02:44:18.569Z,99.90
2017-12-07T02:46:45.041Z,99.90
2017-12-07T02:49:11.519Z,99.90
2017-12-07T02:51:37.992Z,99.90
2017-12-07T02:54:05.192Z,99.90
2017-12-07T02:56:31.716Z,99.90
2017-12-07T02:58:58.158Z,99.90
2017-12-07T03:01:24.617Z,99.90
2017-12-07T03:03:51.085Z,99.90
2017-12-07T03:06:17.672Z,99.90
2017-12-07T03:08:44.173Z,99.90
2017-12-07T03:11:11.353Z,99.90
2017-12-07T03:13:50.057Z,99.90
2017-12-07T03:16:16.541Z,99.90
2017-12-07T03:18:42.999Z,99.90
2017-12-07T03:21:10.213Z,99.90
2017-12-07T03:23:36.667Z,99.90
2017-12-07T03:26:03.382Z,99.90
2017-12-07T03:28:29.851Z,99.90
2017-12-07T03:30:56.310Z,99.90
2017-12-07T03:33:22.789Z,99.90
2017-12-07T03:35:50.019Z,99.90
2017-12-07T03:38:16.538Z,99.90
2017-12-07T03:40:42.989Z,99.90
2017-12-07T03:43:09.446Z,99.90
2017-12-07T03:45:35.933Z,99.90
2017-12-07T03:48:02.418Z,99.90
2017-12-07T03:50:28.938Z,99.90
2017-12-07T03:52:56.163Z,99.90
2017-12-07T03:55:22.641Z,99.90
2017-12-07T03:57:49.122Z,99.90
2017-12-07T04:00:15.589Z,99.90
2017-12-07T04:02:42.081Z,99.90
2017-12-07T04:05:08.549Z,99.90
2017-12-07T04:07:35.029Z,99.90
2017-12-07T04:10:02.240Z,99.90
2017-12-07T04:12:28.712Z,99.90
2017-12-07T04:14:55.941Z,99.90
2017-12-07T04:17:22.414Z,99.90
2017-12-07T04:19:49.616Z,99.90
2017-12-07T04:22:16.458Z,99.90
2017-12-07T04:24:42.916Z,99.90
2017-12-07T04:27:09.377Z,99.90
2017-12-07T04:29:35.863Z,99.90
2017-12-07T04:32:02.345Z,99.90
2017-12-07T04:34:29.533Z,99.90
2017-12-07T04:36:55.995Z,99.90
2017-12-07T04:39:22.498Z,99.90
2017-12-07T04:41:49.000Z,99.90
2017-12-07T04:44:16.381Z,99.90
2017-12-07T04:46:42.841Z,99.90
2017-12-07T04:49:09.305Z,99.90
2017-12-07T04:51:36.535Z,99.90
2017-12-07T04:54:03.014Z,99.90
2017-12-07T04:56:29.461Z,99.90
2017-12-07T04:58:55.950Z,99.90
2017-12-07T05:01:22.421Z,99.90
2017-12-07T05:03:48.894Z,99.90
2017-12-07T05:06:15.359Z,99.90
2017-12-07T05:08:42.726Z,99.90
2017-12-07T05:11:09.216Z,99.90
2017-12-07T05:13:35.705Z,99.90
2017-12-07T05:16:02.290Z,99.90
2017-12-07T05:18:28.785Z,99.90
2017-12-07T05:20:55.269Z,99.90
2017-12-07T05:23:21.882Z,99.90
2017-12-07T05:25:48.356Z,99.90
2017-12-07T05:28:15.550Z,99.90
2017-12-07T05:30:42.134Z,99.90
2017-12-07T05:33:09.340Z,99.90
2017-12-07T05:35:35.808Z,99.90
2017-12-07T05:38:03.363Z,99.90
2017-12-07T05:40:29.855Z,99.90
2017-12-07T05:42:56.449Z,99.90
2017-12-07T05:45:22.933Z,99.90
2017-12-07T05:47:49.425Z,99.90
2017-12-07T05:50:16.637Z,99.90
2017-12-07T05:52:43.125Z,99.90
2017-12-07T05:55:10.326Z,99.90
2017-12-07T05:57:37.568Z,99.90
2017-12-07T06:00:04.339Z,99.90
2017-12-07T06:02:30.810Z,99.90
2017-12-07T06:04:57.311Z,99.90
2017-12-07T06:07:23.800Z,99.90
2017-12-07T06:09:50.305Z,99.90
2017-12-07T06:12:16.780Z,99.90
2017-12-07T06:14:43.298Z,99.90
2017-12-07T06:17:09.769Z,99.90
2017-12-07T06:19:36.260Z,99.90
2017-12-07T06:22:02.722Z,99.90
2017-12-07T06:24:29.191Z,99.90
2017-12-07T06:26:56.376Z,99.90
2017-12-07T06:29:22.864Z,99.90
2017-12-07T06:31:49.325Z,99.90
2017-12-07T06:34:15.817Z,99.90
2017-12-07T06:36:42.301Z,99.90
2017-12-07T06:39:09.503Z,99.90
2017-12-07T06:41:36.147Z,99.90
2017-12-07T06:44:02.617Z,99.90
2017-12-07T06:46:29.091Z,99.90
2017-12-07T06:48:55.584Z,99.90
2017-12-07T06:51:22.826Z,99.90
2017-12-07T06:53:50.037Z,99.90
2017-12-07T06:56:16.531Z,99.90
2017-12-07T06:58:43.022Z,99.90
2017-12-07T07:01:09.638Z,99.90
2017-12-07T07:03:36.149Z,99.90
2017-12-07T07:06:02.638Z,99.90
2017-12-07T07:08:29.264Z,99.90
2017-12-07T07:10:55.733Z,99.90
2017-12-07T07:13:22.944Z,99.90
2017-12-07T07:15:49.420Z,99.90
2017-12-07T07:18:15.929Z,99.90
2017-12-07T07:20:42.426Z,99.90
2017-12-07T07:23:08.890Z,99.90
2017-12-07T07:25:36.132Z,99.90
2017-12-07T07:28:02.578Z,99.90
2017-12-07T07:30:29.031Z,99.90
2017-12-07T07:32:55.557Z,99.90
2017-12-07T07:35:22.753Z,99.90
2017-12-07T07:37:49.225Z,99.90
2017-12-07T07:40:15.694Z,99.90
2017-12-07T07:42:42.241Z,99.90
2017-12-07T07:45:08.725Z,99.90
2017-12-07T07:47:35.205Z,99.90
2017-12-07T07:50:01.673Z,99.90
2017-12-07T07:52:28.193Z,99.90
2017-12-07T07:54:54.674Z,99.90
2017-12-07T07:57:21.171Z,99.90
2017-12-07T07:59:47.664Z,99.90
2017-12-07T08:02:14.897Z,98.20
2017-12-07T08:04:41.374Z,98.20
2017-12-07T08:07:07.836Z,97.10
2017-12-07T08:09:34.327Z,97.10
2017-12-07T08:12:00.826Z,96.60
2017-12-07T08:14:28.052Z,95.70
2017-12-07T08:16:54.544Z,95.80
2017-12-07T08:19:21.033Z,95.30
2017-12-07T08:21:47.505Z,96.20
2017-12-07T08:24:14.798Z,96.80
2017-12-07T08:26:41.275Z,97.50
2017-12-07T08:29:07.718Z,98.40
2017-12-07T08:31:34.949Z,97.50
2017-12-07T08:34:01.402Z,97.50
2017-12-07T08:36:27.883Z,97.10
2017-12-07T08:38:54.373Z,95.80
2017-12-07T08:41:21.622Z,94.40
2017-12-07T08:43:48.148Z,94.30
2017-12-07T08:46:14.708Z,92.70
2017-12-07T08:48:41.191Z,94.20
2017-12-07T08:51:07.710Z,90.40
2017-12-07T08:53:34.179Z,90.30
2017-12-07T08:56:01.404Z,82.30
2017-12-07T08:58:27.908Z,83.70
2017-12-07T09:00:54.394Z,78.70
2017-12-07T09:03:20.861Z,69.40
2017-12-07T09:05:47.349Z,65.90
2017-12-07T09:08:13.918Z,61.60
2017-12-07T09:10:41.116Z,56.10
2017-12-07T09:13:07.564Z,56.00
2017-12-07T09:15:34.101Z,55.00
2017-12-07T09:18:00.578Z,52.20
2017-12-07T09:20:27.061Z,52.30
2017-12-07T09:22:53.557Z,50.50
2017-12-07T09:25:20.206Z,50.20
2017-12-07T09:27:46.695Z,48.40
2017-12-07T09:30:13.182Z,48.20
2017-12-07T09:32:40.039Z,47.30
2017-12-07T09:35:06.542Z,46.80
2017-12-07T09:37:33.004Z,47.40
2017-12-07T09:39:59.479Z,47.20
2017-12-07T09:42:25.955Z,48.60
2017-12-07T09:44:52.557Z,47.10
2017-12-07T09:47:19.785Z,47.50
2017-12-07T09:49:46.272Z,47.60
2017-12-07T09:52:12.750Z,47.90
2017-12-07T09:54:39.209Z,44.80
2017-12-07T09:57:05.726Z,45.50
2017-12-07T09:59:32.194Z,45.40
2017-12-07T10:01:58.705Z,45.50
2017-12-07T10:04:25.190Z,44.40
2017-12-07T10:06:51.826Z,43.20
2017-12-07T10:09:18.321Z,43.60
2017-12-07T10:11:44.786Z,43.60
2017-12-07T10:14:11.270Z,44.00
2017-12-07T10:16:37.757Z,43.80
2017-12-07T10:19:04.415Z,45.10
2017-12-07T10:21:31.671Z,46.40
2017-12-07T10:23:58.138Z,45.80
2017-12-07T10:26:25.378Z,45.00
2017-12-07T10:28:51.861Z,44.90
2017-12-07T10:31:18.518Z,44.90
2017-12-07T10:33:45.729Z,46.30
2017-12-07T10:36:12.244Z,46.30
2017-12-07T10:38:39.476Z,45.30
2017-12-07T10:41:05.925Z,45.30
2017-12-07T10:43:32.664Z,45.90
2017-12-07T10:45:59.156Z,45.20
2017-12-07T10:48:25.617Z,44.30
2017-12-07T10:50:52.089Z,44.50
2017-12-07T10:53:19.289Z,44.00
2017-12-07T10:55:45.768Z,43.90
2017-12-07T10:58:12.955Z,43.70
2017-12-07T11:00:39.413Z,43.70
2017-12-07T11:03:05.920Z,44.80
2017-12-07T11:05:32.379Z,45.80
2017-12-07T11:07:58.848Z,45.20
2017-12-07T11:10:25.293Z,44.00
2017-12-07T11:12:52.447Z,44.80
2017-12-07T11:15:18.940Z,44.80
2017-12-07T11:17:46.173Z,45.10
2017-12-07T11:20:12.684Z,45.10
2017-12-07T11:22:39.157Z,45.20
2017-12-07T11:25:05.673Z,45.90
2017-12-07T11:27:32.185Z,46.50
2017-12-07T11:29:58.677Z,46.80
2017-12-07T11:32:25.161Z,48.60
2017-12-07T11:34:51.604Z,51.60
2017-12-07T11:37:18.108Z,55.00
2017-12-07T11:39:44.589Z,59.70
2017-12-07T11:42:11.078Z,63.90
2017-12-07T11:44:37.541Z,67.00
2017-12-07T11:47:03.998Z,72.90
2017-12-07T11:49:30.462Z,76.90
2017-12-07T11:51:56.921Z,78.00
2017-12-07T11:54:23.445Z,77.70
2017-12-07T11:56:49.936Z,80.50
2017-12-07T11:59:16.409Z,80.00
2017-12-07T12:01:42.911Z,83.00
2017-12-07T12:04:09.385Z,81.70
2017-12-07T12:06:35.867Z,83.30
2017-12-07T12:09:02.378Z,85.90
2017-12-07T12:11:28.857Z,85.20
2017-12-07T12:13:56.069Z,85.00
2017-12-07T12:16:22.566Z,84.80
2017-12-07T12:18:50.057Z,85.40
2017-12-07T12:21:17.294Z,86.90
2017-12-07T12:23:43.761Z,86.70
2017-12-07T12:26:10.254Z,87.40
2017-12-07T12:28:36.735Z,88.70
2017-12-07T12:31:03.973Z,89.20
2017-12-07T12:33:30.564Z,89.10
2017-12-07T12:35:57.024Z,89.90
2017-12-07T12:38:23.485Z,90.30
2017-12-07T12:40:49.946Z,90.90
2017-12-07T12:43:17.173Z,90.60
2017-12-07T12:45:43.625Z,90.50
2017-12-07T12:48:10.845Z,90.70
2017-12-07T12:50:37.384Z,90.80
2017-12-07T12:53:03.881Z,90.90
2017-12-07T12:55:30.365Z,91.20
2017-12-07T12:57:56.810Z,91.20
2017-12-07T13:00:23.287Z,91.60
2017-12-07T13:02:49.766Z,91.50
2017-12-07T13:05:16.202Z,91.60
2017-12-07T13:07:42.651Z,91.70
2017-12-07T13:10:09.102Z,91.50
2017-12-07T13:12:36.281Z,91.80
2017-12-07T13:15:02.734Z,91.70
2017-12-07T13:17:29.204Z,92.30
2017-12-07T13:19:55.644Z,91.70
2017-12-07T13:22:22.878Z,91.50
2017-12-07T13:24:50.102Z,91.90
2017-12-07T13:27:16.876Z,91.80
2017-12-07T13:29:44.070Z,91.70
2017-12-07T13:32:10.510Z,91.60
2017-12-07T13:34:36.971Z,91.80
2017-12-07T13:37:03.433Z,92.20
2017-12-07T13:39:30.626Z,92.10
2017-12-07T13:41:57.092Z,92.20
2017-12-07T13:44:23.591Z,91.80
2017-12-07T13:46:50.062Z,91.80
2017-12-07T13:49:16.541Z,91.80
2017-12-07T13:51:43.021Z,91.80
2017-12-07T13:54:09.512Z,91.70
2017-12-07T13:56:35.970Z,91.50
2017-12-07T13:59:02.430Z,91.90
2017-12-07T14:01:28.902Z,92.10
2017-12-07T14:03:56.089Z,92.80
2017-12-07T14:06:22.543Z,92.80
2017-12-07T14:08:48.988Z,93.20
2017-12-07T14:11:16.407Z,94.10
2017-12-07T14:13:43.109Z,94.10
2017-12-07T14:16:10.291Z,93.60
2017-12-07T14:18:36.730Z,93.60
2017-12-07T14:21:03.138Z,93.50
2017-12-07T14:23:30.300Z,93.00
2017-12-07T14:25:56.729Z,93.00
2017-12-07T14:28:23.130Z,92.60
2017-12-07T14:30:50.326Z,92.50
2017-12-07T14:33:16.726Z,92.50
2017-12-07T14:35:43.869Z,92.60
2017-12-07T14:38:11.041Z,92.90
2017-12-07T14:40:38.219Z,93.10
2017-12-07T14:43:04.634Z,93.10
2017-12-07T14:45:31.046Z,93.00
2017-12-07T14:47:58.221Z,93.40
2017-12-07T14:50:24.610Z,93.40
2017-12-07T14:52:51.069Z,93.40
2017-12-07T14:55:17.522Z,94.00
2017-12-07T14:57:43.929Z,93.80
2017-12-07T15:00:11.073Z,94.10
2017-12-07T15:02:38.374Z,94.30
2017-12-07T15:05:04.875Z,94.20
2017-12-07T15:07:31.282Z,94.30
2017-12-07T15:09:58.532Z,94.70
2017-12-07T15:12:25.734Z,94.40
2017-12-07T15:14:52.138Z,94.30
2017-12-07T15:17:18.552Z,94.20
2017-12-07T15:19:45.002Z,94.10
2017-12-07T15:22:11.442Z,94.70
2017-12-07T15:24:37.848Z,94.20
2017-12-07T15:27:05.061Z,94.70
2017-12-07T15:29:31.577Z,94.70
2017-12-07T15:31:57.974Z,94.70
2017-12-07T15:34:25.131Z,95.30
2017-12-07T15:36:51.553Z,95.30
2017-12-07T15:39:18.747Z,95.70
2017-12-07T15:41:45.141Z,95.70
2017-12-07T15:44:12.636Z,95.60
2017-12-07T15:46:39.060Z,95.60
2017-12-07T15:49:05.598Z,95.10
2017-12-07T15:51:32.011Z,95.40
2017-12-07T15:53:58.490Z,95.50
2017-12-07T15:56:24.934Z,95.90
2017-12-07T15:58:51.370Z,96.40
2017-12-07T16:01:17.802Z,97.10
2017-12-07T16:03:44.281Z,98.00
2017-12-07T16:06:10.689Z,98.70
2017-12-07T16:08:37.858Z,99.60
2017-12-07T16:11:04.272Z,99.60
2017-12-07T16:13:30.703Z,99.70
2017-12-07T16:15:57.094Z,99.80
2017-12-07T16:18:23.537Z,99.70
2017-12-07T16:20:50.119Z,99.80
2017-12-07T16:23:17.277Z,99.80
2017-12-07T16:25:44.413Z,99.60
2017-12-07T16:28:11.124Z,99.60
2017-12-07T16:30:38.354Z,99.90
2017-12-07T16:33:04.791Z,99.90
2017-12-07T16:35:31.242Z,99.90
2017-12-07T16:37:57.702Z,99.90
2017-12-07T16:40:24.872Z,99.90
2017-12-07T16:42:51.290Z,99.90
2017-12-07T16:45:17.730Z,99.90
2017-12-07T16:47:44.175Z,99.90
2017-12-07T16:50:12.195Z,99.90
2017-12-07T16:52:38.655Z,99.90
2017-12-07T16:55:05.858Z,99.90
2017-12-07T16:57:32.283Z,99.90
2017-12-07T16:59:58.753Z,99.90
2017-12-07T17:02:25.207Z,99.90
2017-12-07T17:04:52.352Z,99.20
2017-12-07T17:07:19.554Z,99.00
2017-12-07T17:09:46.052Z,99.00
2017-12-07T17:12:12.580Z,98.60
2017-12-07T17:14:39.025Z,99.00
2017-12-07T17:17:05.499Z,98.60
2017-12-07T17:19:31.928Z,98.70
2017-12-07T17:21:58.344Z,98.80
2017-12-07T17:24:24.783Z,98.90
2017-12-07T17:26:51.199Z,99.20
2017-12-07T17:29:17.609Z,99.60
2017-12-07T17:31:44.770Z,99.20
2017-12-07T17:34:11.254Z,99.20
2017-12-07T17:36:38.441Z,98.60
2017-12-07T17:39:05.941Z,98.00
2017-12-07T17:41:32.368Z,98.00
2017-12-07T17:43:58.794Z,97.10
2017-12-07T17:46:25.309Z,96.60
2017-12-07T17:48:52.458Z,95.60
2017-12-07T17:51:18.865Z,95.60
2017-12-07T17:53:45.328Z,96.10
2017-12-07T17:56:11.759Z,96.60
2017-12-07T17:58:38.259Z,95.80
2017-12-07T18:01:04.775Z,95.90
2017-12-07T18:03:31.224Z,95.70
2017-12-07T18:05:58.433Z,95.50
2017-12-07T18:08:24.883Z,95.50
2017-12-07T18:10:51.336Z,95.30
2017-12-07T18:13:18.653Z,95.20
2017-12-07T18:15:45.174Z,95.20
2017-12-07T18:18:11.622Z,95.20
2017-12-07T18:20:38.057Z,95.10
2017-12-07T18:23:04.818Z,95.30
2017-12-07T18:25:31.301Z,95.60
2017-12-07T18:27:57.766Z,95.40
2017-12-07T18:30:24.293Z,95.20
2017-12-07T18:32:50.835Z,95.10
2017-12-07T18:35:17.303Z,95.30
2017-12-07T18:37:43.801Z,95.40
2017-12-07T18:40:10.303Z,95.70
2017-12-07T18:42:36.784Z,95.30
2017-12-07T18:45:03.633Z,95.50
2017-12-07T18:47:30.130Z,95.60
2017-12-07T18:49:56.597Z,95.60
2017-12-07T18:52:23.112Z,95.60
2017-12-07T18:54:49.541Z,95.60
2017-12-07T18:57:15.978Z,95.50
2017-12-07T18:59:42.573Z,95.40
2017-12-07T19:02:09.816Z,95.00
2017-12-07T19:04:37.034Z,94.50
2017-12-07T19:07:03.492Z,94.50
2017-12-07T19:09:29.921Z,94.10
2017-12-07T19:11:56.383Z,94.30
2017-12-07T19:14:22.802Z,94.20
2017-12-07T19:16:50.023Z,93.80
2017-12-07T19:19:16.521Z,93.80
2017-12-07T19:21:43.005Z,93.50
2017-12-07T19:24:09.725Z,93.30
2017-12-07T19:26:36.174Z,93.20
2017-12-07T19:29:02.638Z,92.80
2017-12-07T19:34:30.077Z,92.20
2017-12-07T19:36:56.496Z,92.00
2017-12-07T19:39:22.944Z,92.10
2017-12-07T19:41:49.494Z,91.90
2017-12-07T19:44:16.661Z,92.30
2017-12-07T19:46:43.148Z,92.30
2017-12-07T19:49:10.372Z,91.70
2017-12-07T19:51:36.821Z,91.70
2017-12-07T19:54:03.401Z,91.60
2017-12-07T19:56:30.580Z,92.10
2017-12-07T19:58:57.780Z,91.20
2017-12-07T20:01:24.256Z,91.20
2017-12-07T20:03:50.750Z,90.70
2017-12-07T20:06:17.998Z,88.70
2017-12-07T20:08:44.438Z,88.60
2017-12-07T20:11:10.878Z,89.10
2017-12-07T20:13:37.325Z,86.50
2017-12-07T20:16:04.834Z,81.40
2017-12-07T20:18:31.254Z,81.40
2017-12-07T20:20:57.686Z,82.60
2017-12-07T20:23:24.134Z,79.10
2017-12-07T20:25:50.558Z,80.70
2017-12-07T20:28:17.114Z,78.80
2017-12-07T20:30:43.570Z,79.60
2017-12-07T20:33:09.982Z,80.30
2017-12-07T20:35:36.473Z,83.50
2017-12-07T20:38:02.930Z,82.70
2017-12-07T20:40:29.489Z,82.10
2017-12-07T20:42:56.684Z,82.70
2017-12-07T20:45:23.134Z,82.70
2017-12-07T20:47:49.624Z,84.40
2017-12-07T20:50:16.094Z,85.50
2017-12-07T20:52:42.515Z,85.30
2017-12-07T20:55:09.006Z,84.50
2017-12-07T20:57:35.443Z,85.00
2017-12-07T21:00:01.922Z,85.30
2017-12-07T21:02:28.385Z,85.50
2017-12-07T21:04:54.843Z,84.90
2017-12-07T21:07:21.251Z,84.40
2017-12-07T21:09:47.909Z,85.20
2017-12-07T21:12:14.417Z,85.20
2017-12-07T21:14:40.868Z,86.50
2017-12-07T21:17:07.331Z,85.70
2017-12-07T21:19:33.795Z,85.00
2017-12-07T21:22:00.306Z,85.30
2017-12-07T21:24:27.496Z,86.00
2017-12-07T21:26:54.073Z,85.90
2017-12-07T21:29:20.514Z,85.90
2017-12-07T21:31:46.982Z,83.60
2017-12-07T21:34:13.454Z,82.60
2017-12-07T21:36:39.918Z,82.10
2017-12-07T21:39:06.406Z,81.80
2017-12-07T21:41:32.833Z,81.40
2017-12-07T21:43:59.257Z,81.30
2017-12-07T21:46:25.777Z,80.00
2017-12-07T21:48:52.942Z,79.20
2017-12-07T21:51:19.382Z,79.00
2017-12-07T21:53:45.829Z,81.40
2017-12-07T21:56:12.270Z,82.00
2017-12-07T21:58:38.739Z,81.20
2017-12-07T22:01:05.301Z,81.60
2017-12-07T22:03:31.769Z,82.90
2017-12-07T22:05:58.208Z,83.00
2017-12-07T22:08:24.682Z,84.50
2017-12-07T22:10:51.841Z,85.50
2017-12-07T22:13:18.324Z,85.60
2017-12-07T22:15:44.766Z,86.00
2017-12-07T22:18:11.251Z,86.00
2017-12-07T22:20:37.748Z,86.30
2017-12-07T22:23:04.965Z,86.80
2017-12-07T22:25:31.409Z,86.70
2017-12-07T22:27:57.841Z,87.20
2017-12-07T22:30:24.292Z,88.10
2017-12-07T22:32:50.715Z,87.90
2017-12-07T22:35:17.114Z,88.40
2017-12-07T22:37:43.595Z,88.80
2017-12-07T22:40:10.025Z,88.80
2017-12-07T22:42:36.479Z,89.70
2017-12-07T22:45:02.930Z,89.90
2017-12-07T22:47:29.438Z,89.80
2017-12-07T22:49:56.701Z,91.40
2017-12-07T22:52:23.169Z,91.50
2017-12-07T23:07:41.954Z,92.30
2017-12-07T23:10:08.505Z,92.30
2017-12-07T23:12:35.714Z,93.30
2017-12-07T23:15:02.180Z,93.30
2017-12-07T23:17:28.639Z,92.80
2017-12-07T23:19:55.139Z,93.20
2017-12-07T23:22:21.605Z,93.40
2017-12-07T23:24:48.790Z,93.90
2017-12-07T23:27:15.264Z,93.90
2017-12-07T23:29:41.695Z,94.40
2017-12-07T23:32:08.125Z,94.90
2017-12-07T23:34:35.333Z,95.60
2017-12-07T23:37:01.797Z,95.60
2017-12-07T23:39:28.241Z,95.30
2017-12-07T23:41:54.645Z,95.50
2017-12-07T23:44:21.104Z,95.70
2017-12-07T23:46:47.543Z,96.10
2017-12-07T23:49:14.000Z,96.90
2017-12-07T23:51:40.488Z,97.00
2017-12-07T23:54:06.919Z,97.20
2017-12-07T23:56:33.363Z,97.90
2017-12-07T23:58:59.813Z,98.10
